createdAt,value
2023-03-08T00:00:02.606Z,991.63
2023-03-08T00:00:43.144Z,991.48
2023-03-08T00:01:23.649Z,991.51
2023-03-08T00:02:04.906Z,991.42
2023-03-08T00:02:45.427Z,991.53
2023-03-08T00:03:25.979Z,991.43
2023-03-08T00:04:06.586Z,991.47
2023-03-08T00:04:47.077Z,991.36
2023-03-08T00:05:27.525Z,991.46
2023-03-08T00:06:08.046Z,991.46
2023-03-08T00:06:48.603Z,991.53
2023-03-08T00:07:29.131Z,991.47
2023-03-08T00:08:09.645Z,991.49
2023-03-08T00:08:50.208Z,991.56
2023-03-08T00:09:30.696Z,991.55
2023-03-08T00:10:11.191Z,991.57
2023-03-08T00:10:51.726Z,991.56
2023-03-08T00:11:32.250Z,991.54
2023-03-08T00:12:12.794Z,991.42
2023-03-08T00:12:53.347Z,991.46
2023-03-08T00:13:33.863Z,991.45
2023-03-08T00:14:14.381Z,991.43
2023-03-08T00:14:54.904Z,991.45
2023-03-08T00:15:35.412Z,991.43
2023-03-08T00:16:15.967Z,991.57
2023-03-08T00:16:56.480Z,991.59
2023-03-08T00:17:36.996Z,991.61
2023-03-08T00:18:17.514Z,991.55
2023-03-08T00:18:58.027Z,991.63
2023-03-08T00:19:38.539Z,991.6
2023-03-08T00:20:19.060Z,991.61
2023-03-08T00:20:59.618Z,991.6
2023-03-08T00:21:40.128Z,991.59
2023-03-08T00:22:21.231Z,991.65
2023-03-08T00:23:01.742Z,991.54
2023-03-08T00:23:42.307Z,991.64
2023-03-08T00:24:22.814Z,991.47
2023-03-08T00:25:03.364Z,991.51
2023-03-08T00:25:43.865Z,991.51
2023-03-08T00:27:56.921Z,991.47
2023-03-08T00:28:37.436Z,991.45
2023-03-08T00:29:18.008Z,991.4
2023-03-08T00:29:58.490Z,991.41
2023-03-08T00:30:39.020Z,991.4
2023-03-08T00:31:19.672Z,991.34
2023-03-08T00:34:35.876Z,991.25
2023-03-08T00:35:16.375Z,991.31
2023-03-08T00:35:56.983Z,991.2
2023-03-08T00:36:37.435Z,991.18
2023-03-08T00:37:17.955Z,991.19
2023-03-08T00:37:58.475Z,991.18
2023-03-08T00:38:38.986Z,991.17
2023-03-08T00:39:19.525Z,991.19
2023-03-08T00:40:00.135Z,991.21
2023-03-08T00:42:13.192Z,991.24
2023-03-08T00:42:53.706Z,991.18
2023-03-08T00:43:34.212Z,991.2
2023-03-08T00:44:14.708Z,991.24
2023-03-08T00:44:55.231Z,991.19
2023-03-08T00:46:48.606Z,991.21
2023-03-08T00:47:29.058Z,991.22
2023-03-08T00:48:09.609Z,991.18
2023-03-08T00:48:50.176Z,991.1
2023-03-08T00:49:31.281Z,991.21
2023-03-08T00:50:11.818Z,991.21
2023-03-08T00:50:52.322Z,991.19
2023-03-08T00:51:32.846Z,991.24
2023-03-08T00:52:13.386Z,991.18
2023-03-08T00:52:53.928Z,991.2
2023-03-08T00:53:34.449Z,991.21
2023-03-08T00:54:14.976Z,991.25
2023-03-08T00:54:55.485Z,991.29
2023-03-08T00:55:36.027Z,991.16
2023-03-08T00:56:16.577Z,991.19
2023-03-08T00:56:57.076Z,991.18
2023-03-08T00:57:37.600Z,991.14
2023-03-08T00:58:18.124Z,991.17
2023-03-08T00:58:58.635Z,991.19
2023-03-08T00:59:39.187Z,991.16
2023-03-08T01:00:19.695Z,991.13
2023-03-08T01:01:00.285Z,991.1
2023-03-08T01:01:40.762Z,991.06
2023-03-08T01:02:21.304Z,991.08
2023-03-08T01:03:01.887Z,991.04
2023-03-08T01:03:42.412Z,991.04
2023-03-08T01:04:22.937Z,991.01
2023-03-08T01:05:03.460Z,991
2023-03-08T01:05:44.007Z,991.06
2023-03-08T01:06:24.533Z,990.95
2023-03-08T01:07:05.040Z,990.97
2023-03-08T01:07:45.579Z,990.96
2023-03-08T01:08:26.143Z,990.99
2023-03-08T01:09:06.657Z,990.94
2023-03-08T01:09:47.213Z,991.02
2023-03-08T01:10:27.936Z,990.95
2023-03-08T01:11:08.487Z,990.97
2023-03-08T01:11:49.002Z,990.91
2023-03-08T01:12:29.540Z,990.96
2023-03-08T01:13:10.054Z,990.94
2023-03-08T01:13:50.619Z,990.88
2023-03-08T01:14:31.180Z,990.89
2023-03-08T01:15:11.692Z,990.8
2023-03-08T01:15:52.254Z,990.84
2023-03-08T01:16:32.804Z,990.86
2023-03-08T01:17:13.364Z,990.76
2023-03-08T01:17:53.927Z,990.83
2023-03-08T01:18:34.465Z,990.81
2023-03-08T01:19:15.978Z,990.83
2023-03-08T01:19:56.524Z,990.82
2023-03-08T01:20:37.083Z,990.81
2023-03-08T01:21:18.654Z,990.86
2023-03-08T01:21:59.159Z,990.81
2023-03-08T01:22:39.696Z,990.84
2023-03-08T01:23:20.205Z,990.79
2023-03-08T01:24:00.753Z,990.8
2023-03-08T01:24:41.292Z,990.79
2023-03-08T01:25:21.817Z,990.66
2023-03-08T01:26:02.377Z,990.73
2023-03-08T01:29:20.441Z,990.66
2023-03-08T01:30:01.069Z,990.7
2023-03-08T01:30:41.596Z,990.67
2023-03-08T01:31:22.127Z,990.66
2023-03-08T01:32:02.644Z,990.68
2023-03-08T01:32:43.206Z,990.62
2023-03-08T01:33:23.716Z,990.62
2023-03-08T01:34:04.179Z,990.63
2023-03-08T01:34:44.695Z,990.63
2023-03-08T01:35:25.249Z,990.63
2023-03-08T01:36:05.891Z,990.62
2023-03-08T01:36:46.333Z,990.69
2023-03-08T01:37:26.850Z,990.62
2023-03-08T01:38:07.398Z,990.6
2023-03-08T01:38:47.922Z,990.6
2023-03-08T01:39:28.448Z,990.55
2023-03-08T01:40:09.008Z,990.59
2023-03-08T01:40:49.503Z,990.56
2023-03-08T01:41:30.018Z,990.57
2023-03-08T01:42:10.558Z,990.55
2023-03-08T01:42:51.115Z,990.51
2023-03-08T01:43:31.716Z,990.55
2023-03-08T01:44:12.250Z,990.54
2023-03-08T01:44:52.769Z,990.52
2023-03-08T01:45:33.312Z,990.52
2023-03-08T01:46:13.838Z,990.47
2023-03-08T01:46:54.356Z,990.48
2023-03-08T01:47:34.861Z,990.46
2023-03-08T01:48:15.406Z,990.48
2023-03-08T01:48:56.028Z,990.53
2023-03-08T01:49:36.421Z,990.43
2023-03-08T01:50:16.965Z,990.46
2023-03-08T01:50:57.508Z,990.43
2023-03-08T01:51:38.050Z,990.45
2023-03-08T01:52:18.553Z,990.44
2023-03-08T01:52:59.938Z,990.45
2023-03-08T01:53:40.541Z,990.42
2023-03-08T01:54:21.090Z,990.44
2023-03-08T01:55:01.612Z,990.48
2023-03-08T01:55:42.128Z,990.4
2023-03-08T01:56:22.648Z,990.35
2023-03-08T01:57:03.176Z,990.4
2023-03-08T01:57:43.676Z,990.33
2023-03-08T01:58:24.180Z,990.33
2023-03-08T01:59:04.714Z,990.33
2023-03-08T01:59:45.227Z,990.33
2023-03-08T02:00:25.742Z,990.29
2023-03-08T02:01:06.378Z,990.31
2023-03-08T02:01:47.646Z,990.29
2023-03-08T02:03:45.631Z,990.24
2023-03-08T02:04:26.212Z,990.22
2023-03-08T02:05:06.730Z,990.26
2023-03-08T02:05:47.277Z,990.27
2023-03-08T02:06:27.804Z,990.2
2023-03-08T02:07:08.313Z,990.26
2023-03-08T02:07:48.832Z,990.26
2023-03-08T02:08:29.370Z,990.27
2023-03-08T02:09:09.882Z,990.24
2023-03-08T02:09:50.415Z,990.3
2023-03-08T02:10:30.932Z,990.28
2023-03-08T02:12:28.891Z,990.29
2023-03-08T02:13:09.444Z,990.28
2023-03-08T02:13:51.676Z,990.27
2023-03-08T02:14:32.195Z,990.25
2023-03-08T02:15:12.741Z,990.26
2023-03-08T02:15:53.261Z,990.23
2023-03-08T02:16:33.788Z,990.26
2023-03-08T02:17:14.304Z,990.22
2023-03-08T02:17:54.898Z,990.19
2023-03-08T02:18:35.411Z,990.13
2023-03-08T02:19:15.956Z,990.14
2023-03-08T02:19:56.625Z,990.1
2023-03-08T02:20:37.136Z,990.05
2023-03-08T02:21:17.652Z,990.09
2023-03-08T02:21:58.199Z,990.04
2023-03-08T02:22:38.706Z,990.06
2023-03-08T02:23:19.224Z,990.04
2023-03-08T02:23:59.735Z,990.01
2023-03-08T02:24:40.254Z,990.05
2023-03-08T02:25:20.785Z,990.03
2023-03-08T02:26:01.299Z,989.97
2023-03-08T02:26:41.845Z,990
2023-03-08T02:27:22.356Z,989.98
2023-03-08T02:28:02.905Z,989.94
2023-03-08T02:28:43.429Z,989.95
2023-03-08T02:29:23.952Z,989.91
2023-03-08T02:30:04.500Z,989.98
2023-03-08T02:30:45.010Z,989.92
2023-03-08T02:31:25.563Z,989.96
2023-03-08T02:32:06.128Z,989.85
2023-03-08T02:32:46.629Z,989.87
2023-03-08T02:33:27.152Z,989.91
2023-03-08T02:34:08.634Z,989.88
2023-03-08T02:34:49.166Z,989.88
2023-03-08T02:35:29.720Z,989.89
2023-03-08T02:36:10.311Z,989.84
2023-03-08T02:36:50.722Z,989.84
2023-03-08T02:37:31.241Z,989.83
2023-03-08T02:38:11.768Z,989.87
2023-03-08T02:38:52.304Z,989.78
2023-03-08T02:39:32.933Z,989.78
2023-03-08T02:40:13.460Z,989.8
2023-03-08T02:42:27.043Z,989.73
2023-03-08T02:43:07.552Z,989.7
2023-03-08T02:43:48.075Z,989.7
2023-03-08T02:44:28.621Z,989.73
2023-03-08T02:45:09.143Z,989.64
2023-03-08T02:45:49.653Z,989.63
2023-03-08T02:46:30.176Z,989.62
2023-03-08T02:47:10.705Z,989.68
2023-03-08T02:47:51.239Z,989.58
2023-03-08T02:48:31.731Z,989.56
2023-03-08T02:49:12.251Z,989.57
2023-03-08T02:49:52.763Z,989.59
2023-03-08T02:50:33.293Z,989.58
2023-03-08T02:51:13.824Z,989.57
2023-03-08T02:51:54.352Z,989.54
2023-03-08T02:52:34.871Z,989.55
2023-03-08T02:53:15.407Z,989.46
2023-03-08T02:55:13.343Z,989.47
2023-03-08T02:55:53.891Z,989.45
2023-03-08T02:56:34.409Z,989.39
2023-03-08T02:57:14.951Z,989.39
2023-03-08T02:57:55.482Z,989.38
2023-03-08T02:58:35.996Z,989.4
2023-03-08T02:59:16.538Z,989.36
2023-03-08T02:59:57.075Z,989.37
2023-03-08T03:00:37.572Z,989.42
2023-03-08T03:01:18.240Z,989.39
2023-03-08T03:01:58.725Z,989.37
2023-03-08T03:03:56.674Z,989.33
2023-03-08T03:04:37.194Z,989.29
2023-03-08T03:05:17.713Z,989.28
2023-03-08T03:05:58.403Z,989.3
2023-03-08T03:06:38.966Z,989.26
2023-03-08T03:07:19.438Z,989.31
2023-03-08T03:07:59.989Z,989.29
2023-03-08T03:08:40.516Z,989.29
2023-03-08T03:09:21.042Z,989.25
2023-03-08T03:10:02.501Z,989.27
2023-03-08T03:10:42.930Z,989.33
2023-03-08T03:11:23.534Z,989.26
2023-03-08T03:12:04.047Z,989.29
2023-03-08T03:12:44.592Z,989.24
2023-03-08T03:13:25.125Z,989.22
2023-03-08T03:14:05.660Z,989.22
2023-03-08T03:14:46.175Z,989.24
2023-03-08T03:15:26.673Z,989.22
2023-03-08T03:16:07.351Z,989.22
2023-03-08T03:16:47.770Z,989.24
2023-03-08T03:17:28.270Z,989.11
2023-03-08T03:18:08.909Z,989.17
2023-03-08T03:18:49.480Z,989.12
2023-03-08T03:19:29.996Z,989.13
2023-03-08T03:20:10.542Z,989.17
2023-03-08T03:20:51.083Z,989.09
2023-03-08T03:21:31.650Z,989.13
2023-03-08T03:22:12.126Z,989.11
2023-03-08T03:22:52.667Z,989.12
2023-03-08T03:23:33.173Z,989.08
2023-03-08T03:24:13.704Z,989.07
2023-03-08T03:24:54.277Z,989.07
2023-03-08T03:25:34.822Z,989.05
2023-03-08T03:26:15.328Z,989.03
2023-03-08T03:26:55.833Z,989.02
2023-03-08T03:27:36.351Z,989.01
2023-03-08T03:28:16.884Z,988.97
2023-03-08T03:28:57.414Z,988.98
2023-03-08T03:29:37.935Z,988.99
2023-03-08T03:30:18.440Z,988.95
2023-03-08T03:30:59.081Z,988.97
2023-03-08T03:31:39.572Z,988.97
2023-03-08T03:32:20.114Z,988.96
2023-03-08T03:33:00.620Z,989
2023-03-08T03:33:41.150Z,989
2023-03-08T03:34:21.674Z,989.02
2023-03-08T03:35:02.176Z,988.96
2023-03-08T03:35:42.746Z,988.97
2023-03-08T03:36:23.216Z,988.97
2023-03-08T03:37:03.759Z,988.97
2023-03-08T03:37:44.240Z,988.94
2023-03-08T03:38:24.763Z,988.99
2023-03-08T03:39:05.271Z,988.94
2023-03-08T03:39:45.802Z,988.94
2023-03-08T03:40:26.375Z,988.89
2023-03-08T03:41:06.920Z,988.95
2023-03-08T03:41:47.446Z,988.9
2023-03-08T03:42:27.983Z,988.91
2023-03-08T03:43:08.515Z,988.95
2023-03-08T03:43:49.027Z,988.92
2023-03-08T03:44:29.574Z,988.91
2023-03-08T03:45:10.085Z,988.85
2023-03-08T03:45:50.627Z,988.82
2023-03-08T03:46:31.167Z,988.84
2023-03-08T03:47:11.658Z,988.8
2023-03-08T03:47:52.182Z,988.78
2023-03-08T03:48:32.721Z,988.78
2023-03-08T03:49:13.273Z,988.7
2023-03-08T03:49:53.794Z,988.71
2023-03-08T03:50:34.302Z,988.72
2023-03-08T03:51:14.855Z,988.71
2023-03-08T03:51:55.380Z,988.75
2023-03-08T03:52:35.916Z,988.76
2023-03-08T03:53:16.399Z,988.78
2023-03-08T03:53:56.934Z,988.78
2023-03-08T03:54:37.441Z,988.74
2023-03-08T03:55:17.960Z,988.72
2023-03-08T03:55:58.515Z,988.69
2023-03-08T03:56:39.064Z,988.69
2023-03-08T03:57:19.581Z,988.7
2023-03-08T03:58:00.097Z,988.72
2023-03-08T03:58:40.599Z,988.73
2023-03-08T03:59:21.149Z,988.75
2023-03-08T04:01:34.327Z,988.81
2023-03-08T04:02:15.529Z,988.8
2023-03-08T04:02:56.050Z,988.85
2023-03-08T04:03:38.382Z,988.84
2023-03-08T04:07:07.069Z,988.98
2023-03-08T04:07:47.601Z,988.98
2023-03-08T04:08:28.114Z,988.95
2023-03-08T04:09:08.683Z,989.01
2023-03-08T04:09:49.190Z,989.07
2023-03-08T04:10:29.728Z,989.04
2023-03-08T04:11:10.237Z,989.04
2023-03-08T04:11:51.704Z,989.06
2023-03-08T04:12:32.247Z,989.04
2023-03-08T04:13:12.754Z,989.01
2023-03-08T04:13:53.730Z,988.97
2023-03-08T04:14:34.315Z,989.02
2023-03-08T04:15:14.770Z,989.01
2023-03-08T04:15:55.287Z,988.96
2023-03-08T04:16:35.756Z,988.98
2023-03-08T04:17:16.256Z,988.97
2023-03-08T04:17:56.724Z,988.88
2023-03-08T04:18:37.269Z,988.8
2023-03-08T04:19:17.792Z,988.82
2023-03-08T04:22:34.114Z,988.73
2023-03-08T04:23:14.663Z,988.73
2023-03-08T04:23:55.168Z,988.71
2023-03-08T04:24:35.710Z,988.74
2023-03-08T04:25:16.236Z,988.72
2023-03-08T04:25:56.765Z,988.71
2023-03-08T04:26:37.263Z,988.71
2023-03-08T04:27:17.824Z,988.66
2023-03-08T04:27:58.307Z,988.68
2023-03-08T04:28:38.960Z,988.65
2023-03-08T04:29:19.471Z,988.62
2023-03-08T04:30:00.008Z,988.62
2023-03-08T04:30:40.530Z,988.6
2023-03-08T04:31:21.187Z,988.57
2023-03-08T04:32:01.674Z,988.64
2023-03-08T04:32:42.239Z,988.62
2023-03-08T04:33:22.705Z,988.59
2023-03-08T04:34:03.214Z,988.61
2023-03-08T04:34:43.765Z,988.6
2023-03-08T04:35:24.260Z,988.57
2023-03-08T04:36:04.827Z,988.56
2023-03-08T04:36:45.273Z,988.53
2023-03-08T04:37:25.816Z,988.52
2023-03-08T04:38:06.333Z,988.52
2023-03-08T04:38:46.866Z,988.49
2023-03-08T04:39:27.385Z,988.51
2023-03-08T04:40:07.907Z,988.56
2023-03-08T04:40:48.518Z,988.5
2023-03-08T04:41:29.069Z,988.49
2023-03-08T04:42:09.614Z,988.47
2023-03-08T04:42:50.172Z,988.47
2023-03-08T04:43:30.696Z,988.48
2023-03-08T04:44:11.248Z,988.49
2023-03-08T04:44:51.795Z,988.43
2023-03-08T04:45:32.324Z,988.42
2023-03-08T04:46:12.936Z,988.46
2023-03-08T04:46:53.421Z,988.4
2023-03-08T04:47:33.900Z,988.42
2023-03-08T04:48:14.382Z,988.47
2023-03-08T04:48:54.897Z,988.39
2023-03-08T04:49:35.427Z,988.37
2023-03-08T04:50:15.929Z,988.38
2023-03-08T04:50:56.451Z,988.38
2023-03-08T04:51:36.992Z,988.34
2023-03-08T04:52:17.546Z,988.34
2023-03-08T04:52:58.102Z,988.32
2023-03-08T04:53:38.646Z,988.32
2023-03-08T04:54:19.201Z,988.3
2023-03-08T04:54:59.679Z,988.36
2023-03-08T04:56:57.595Z,988.38
2023-03-08T04:57:38.125Z,988.35
2023-03-08T04:58:19.607Z,988.34
2023-03-08T04:59:00.116Z,988.34
2023-03-08T04:59:40.671Z,988.36
2023-03-08T05:00:21.165Z,988.37
2023-03-08T05:01:01.726Z,988.34
2023-03-08T05:01:42.281Z,988.36
2023-03-08T05:02:22.848Z,988.34
2023-03-08T05:03:03.326Z,988.31
2023-03-08T05:05:01.827Z,988.3
2023-03-08T05:05:42.286Z,988.31
2023-03-08T05:06:22.833Z,988.31
2023-03-08T05:07:03.332Z,988.32
2023-03-08T05:09:17.813Z,988.28
2023-03-08T05:09:58.347Z,988.26
2023-03-08T05:10:38.868Z,988.26
2023-03-08T05:11:19.410Z,988.26
2023-03-08T05:11:59.897Z,988.24
2023-03-08T05:12:40.412Z,988.23
2023-03-08T05:13:21.200Z,988.21
2023-03-08T05:14:01.719Z,988.2
2023-03-08T05:14:42.212Z,988.16
2023-03-08T05:15:22.723Z,988.13
2023-03-08T05:16:03.348Z,988.12
2023-03-08T05:16:43.788Z,988.11
2023-03-08T05:17:24.279Z,988.1
2023-03-08T05:18:04.761Z,988.06
2023-03-08T05:18:45.937Z,988.1
2023-03-08T05:19:26.944Z,988.06
2023-03-08T05:20:08.121Z,988.11
2023-03-08T05:20:48.635Z,988.07
2023-03-08T05:21:29.936Z,988.07
2023-03-08T05:22:10.432Z,988.09
2023-03-08T05:22:58.789Z,988.08
2023-03-08T05:23:33.266Z,988.09
2023-03-08T05:24:13.809Z,988.07
2023-03-08T05:24:54.802Z,988.1
2023-03-08T05:25:34.867Z,988.09
2023-03-08T05:26:15.349Z,988.15
2023-03-08T05:26:55.880Z,988.16
2023-03-08T05:27:36.430Z,988.17
2023-03-08T05:28:16.955Z,988.18
2023-03-08T05:28:57.490Z,988.18
2023-03-08T05:29:37.983Z,988.22
2023-03-08T05:30:18.521Z,988.21
2023-03-08T05:30:59.035Z,988.17
2023-03-08T05:31:39.739Z,988.17
2023-03-08T05:32:20.826Z,988.13
2023-03-08T05:33:00.625Z,988.12
2023-03-08T05:33:41.147Z,988.12
2023-03-08T05:34:21.655Z,988.07
2023-03-08T05:35:02.183Z,988.07
2023-03-08T05:35:42.734Z,988.05
2023-03-08T05:36:23.222Z,988.05
2023-03-08T05:37:03.765Z,988.06
2023-03-08T05:37:44.276Z,988.08
2023-03-08T05:38:24.811Z,988.09
2023-03-08T05:39:05.335Z,988.11
2023-03-08T05:39:45.859Z,988.13
2023-03-08T05:40:26.410Z,988.13
2023-03-08T05:41:06.924Z,988.12
2023-03-08T05:41:47.416Z,988.16
2023-03-08T05:42:27.943Z,988.09
2023-03-08T05:47:40.076Z,987.93
2023-03-08T05:48:20.589Z,987.93
2023-03-08T05:49:01.118Z,987.92
2023-03-08T05:49:42.928Z,987.9
2023-03-08T05:50:23.458Z,987.86
2023-03-08T05:51:04.113Z,987.87
2023-03-08T05:51:44.658Z,987.86
2023-03-08T05:52:25.170Z,987.84
2023-03-08T05:53:05.688Z,987.89
2023-03-08T05:53:46.215Z,987.84
2023-03-08T05:54:26.722Z,987.88
2023-03-08T05:55:07.277Z,987.8
2023-03-08T05:55:47.794Z,987.79
2023-03-08T05:56:28.476Z,987.78
2023-03-08T05:57:08.953Z,987.72
2023-03-08T05:57:49.478Z,987.76
2023-03-08T05:58:30.182Z,987.75
2023-03-08T05:59:10.715Z,987.75
2023-03-08T05:59:51.257Z,987.8
2023-03-08T06:00:31.766Z,987.77
2023-03-08T06:01:12.317Z,987.74
2023-03-08T06:01:52.913Z,987.74
2023-03-08T06:02:33.387Z,987.71
2023-03-08T06:03:13.950Z,987.75
2023-03-08T06:03:55.297Z,987.71
2023-03-08T06:04:35.805Z,987.72
2023-03-08T06:05:16.338Z,987.75
2023-03-08T06:05:56.857Z,987.73
2023-03-08T06:06:37.411Z,987.7
2023-03-08T06:07:17.941Z,987.72
2023-03-08T06:07:58.512Z,987.67
2023-03-08T06:08:39.011Z,987.61
2023-03-08T06:09:19.543Z,987.65
2023-03-08T06:10:00.156Z,987.65
2023-03-08T06:10:40.717Z,987.57
2023-03-08T06:11:21.242Z,987.62
2023-03-08T06:12:01.821Z,987.57
2023-03-08T06:12:42.300Z,987.56
2023-03-08T06:13:22.815Z,987.52
2023-03-08T06:14:03.346Z,987.53
2023-03-08T06:14:43.881Z,987.5
2023-03-08T06:15:24.399Z,987.47
2023-03-08T06:16:04.946Z,987.51
2023-03-08T06:16:45.519Z,987.54
2023-03-08T06:17:25.987Z,987.54
2023-03-08T06:18:06.496Z,987.55
2023-03-08T06:20:04.460Z,987.56
2023-03-08T06:20:45.011Z,987.57
2023-03-08T06:21:25.564Z,987.59
2023-03-08T06:22:06.081Z,987.63
2023-03-08T06:22:46.674Z,987.57
2023-03-08T06:23:27.216Z,987.6
2023-03-08T06:24:07.746Z,987.54
2023-03-08T06:24:48.256Z,987.56
2023-03-08T06:25:28.776Z,987.53
2023-03-08T06:26:09.336Z,987.57
2023-03-08T06:26:49.865Z,987.6
2023-03-08T06:27:30.445Z,987.64
2023-03-08T06:28:11.756Z,987.6
2023-03-08T06:28:52.256Z,987.65
2023-03-08T06:29:32.796Z,987.62
2023-03-08T06:30:13.310Z,987.62
2023-03-08T06:30:53.935Z,987.61
2023-03-08T06:31:34.416Z,987.59
2023-03-08T06:32:15.016Z,987.57
2023-03-08T06:32:55.459Z,987.55
2023-03-08T06:33:35.995Z,987.5
2023-03-08T06:34:16.552Z,987.51
2023-03-08T06:34:57.098Z,987.5
2023-03-08T06:35:38.358Z,987.51
2023-03-08T06:36:18.854Z,987.55
2023-03-08T06:36:59.366Z,987.5
2023-03-08T06:37:39.890Z,987.46
2023-03-08T06:38:20.402Z,987.43
2023-03-08T06:39:00.913Z,987.48
2023-03-08T06:39:41.473Z,987.43
2023-03-08T06:40:21.991Z,987.45
2023-03-08T06:41:02.475Z,987.47
2023-03-08T06:41:43.022Z,987.47
2023-03-08T06:42:34.621Z,987.44
2023-03-08T06:44:21.528Z,987.39
2023-03-08T06:45:02.064Z,987.4
2023-03-08T06:45:42.629Z,987.39
2023-03-08T06:46:23.299Z,987.36
2023-03-08T06:47:03.763Z,987.33
2023-03-08T06:47:44.288Z,987.3
2023-03-08T06:48:24.841Z,987.32
2023-03-08T06:49:05.396Z,987.3
2023-03-08T06:49:46.969Z,987.3
2023-03-08T06:50:26.469Z,987.38
2023-03-08T06:51:06.984Z,987.34
2023-03-08T06:51:47.498Z,987.33
2023-03-08T06:52:28.020Z,987.35
2023-03-08T06:53:08.532Z,987.36
2023-03-08T06:53:49.047Z,987.3
2023-03-08T06:54:29.602Z,987.4
2023-03-08T06:55:10.088Z,987.41
2023-03-08T06:55:50.601Z,987.35
2023-03-08T06:57:48.553Z,987.35
2023-03-08T06:58:29.102Z,987.32
2023-03-08T06:59:09.629Z,987.29
2023-03-08T06:59:50.182Z,987.28
2023-03-08T07:00:30.740Z,987.27
2023-03-08T07:01:11.232Z,987.29
2023-03-08T07:01:52.455Z,987.22
2023-03-08T07:02:32.969Z,987.23
2023-03-08T07:03:13.507Z,987.22
2023-03-08T07:05:06.060Z,987.17
2023-03-08T07:05:46.571Z,987.2
2023-03-08T07:06:27.935Z,987.14
2023-03-08T07:07:08.474Z,987.12
2023-03-08T07:09:27.129Z,987.2
2023-03-08T07:10:09.670Z,987.16
2023-03-08T07:10:50.161Z,987.16
2023-03-08T07:11:30.677Z,987.13
2023-03-08T07:13:43.757Z,987.03
2023-03-08T07:14:26.660Z,987.05
2023-03-08T07:15:07.224Z,986.98
2023-03-08T07:15:49.548Z,987.01
2023-03-08T07:18:08.163Z,986.96
2023-03-08T07:18:48.716Z,986.96
2023-03-08T07:19:29.868Z,986.96
2023-03-08T07:20:11.349Z,986.93
2023-03-08T07:20:51.904Z,986.9
2023-03-08T07:21:33.436Z,986.9
2023-03-08T07:22:14.857Z,986.86
2023-03-08T07:22:56.315Z,986.85
2023-03-08T07:23:36.814Z,986.86
2023-03-08T07:24:17.318Z,986.85
2023-03-08T07:24:57.828Z,986.87
2023-03-08T07:25:38.342Z,986.85
2023-03-08T07:26:18.860Z,986.79
2023-03-08T07:26:59.894Z,986.81
2023-03-08T07:27:40.425Z,986.78
2023-03-08T07:28:20.925Z,986.75
2023-03-08T07:29:02.461Z,986.75
2023-03-08T07:31:04.683Z,986.71
2023-03-08T07:31:48.880Z,986.76
2023-03-08T07:37:02.280Z,986.65
2023-03-08T07:37:42.792Z,986.64
2023-03-08T07:38:23.289Z,986.66
2023-03-08T07:39:03.801Z,986.64
2023-03-08T07:39:44.390Z,986.66
2023-03-08T07:40:24.848Z,986.64
2023-03-08T07:41:05.354Z,986.61
2023-03-08T07:41:47.508Z,986.57
2023-03-08T07:42:26.493Z,986.57
2023-03-08T07:43:09.492Z,986.57
2023-03-08T07:43:50.006Z,986.57
2023-03-08T07:44:30.550Z,986.58
2023-03-08T07:45:11.090Z,986.54
2023-03-08T07:45:51.543Z,986.55
2023-03-08T07:46:32.142Z,986.56
2023-03-08T07:47:13.325Z,986.5
2023-03-08T07:47:53.815Z,986.5
2023-03-08T07:48:34.420Z,986.48
2023-03-08T07:49:14.955Z,986.51
2023-03-08T07:49:55.441Z,986.47
2023-03-08T07:52:23.705Z,986.45
2023-03-08T07:53:04.220Z,986.41
2023-03-08T07:53:44.753Z,986.43
2023-03-08T07:54:25.293Z,986.39
2023-03-08T07:55:05.806Z,986.35
2023-03-08T07:55:46.366Z,986.32
2023-03-08T07:56:26.868Z,986.23
2023-03-08T07:58:44.870Z,986.23
2023-03-08T07:59:25.291Z,986.25
2023-03-08T08:00:05.900Z,986.22
2023-03-08T08:00:46.520Z,986.2
2023-03-08T08:01:27.142Z,986.22
2023-03-08T08:02:07.909Z,986.15
2023-03-08T08:02:48.576Z,986.11
2023-03-08T08:03:29.144Z,986.1
2023-03-08T08:04:09.602Z,986.04
2023-03-08T08:04:51.134Z,985.99
2023-03-08T08:05:32.154Z,986.02
2023-03-08T08:07:24.893Z,985.99
2023-03-08T08:08:06.810Z,985.97
2023-03-08T08:08:47.326Z,985.94
2023-03-08T08:09:28.383Z,985.99
2023-03-08T08:10:08.878Z,985.98
2023-03-08T08:10:49.397Z,986.01
2023-03-08T08:11:30.588Z,985.93
2023-03-08T08:12:11.105Z,985.96
2023-03-08T08:12:52.135Z,985.92
2023-03-08T08:13:32.647Z,985.93
2023-03-08T08:14:13.117Z,985.97
2023-03-08T08:14:54.151Z,986
2023-03-08T08:15:34.669Z,986
2023-03-08T08:16:16.628Z,985.97
2023-03-08T08:16:55.704Z,985.96
2023-03-08T08:17:36.292Z,985.93
2023-03-08T08:18:16.806Z,985.94
2023-03-08T08:20:30.117Z,985.93
2023-03-08T08:21:10.615Z,985.93
2023-03-08T08:21:51.225Z,985.9
2023-03-08T08:22:31.659Z,985.89
2023-03-08T08:23:12.175Z,985.9
2023-03-08T08:23:52.756Z,985.89
2023-03-08T08:24:33.242Z,985.87
2023-03-08T08:25:13.733Z,985.87
2023-03-08T08:25:55.073Z,985.82
2023-03-08T08:26:35.579Z,985.82
2023-03-08T08:27:16.743Z,985.8
2023-03-08T08:27:57.287Z,985.81
2023-03-08T08:28:37.765Z,985.75
2023-03-08T08:29:18.329Z,985.75
2023-03-08T08:29:58.879Z,985.7
2023-03-08T08:30:39.416Z,985.72
2023-03-08T08:31:19.922Z,985.72
2023-03-08T08:32:00.447Z,985.7
2023-03-08T08:32:41.055Z,985.71
2023-03-08T08:33:21.454Z,985.69
2023-03-08T08:35:42.941Z,985.62
2023-03-08T08:36:16.383Z,985.58
2023-03-08T08:36:58.600Z,985.59
2023-03-08T08:37:39.119Z,985.55
2023-03-08T08:41:48.063Z,985.51
2023-03-08T08:42:28.520Z,985.52
2023-03-08T08:43:09.037Z,985.47
2023-03-08T08:43:49.606Z,985.43
2023-03-08T08:44:30.202Z,985.4
2023-03-08T08:45:10.718Z,985.39
2023-03-08T08:45:51.288Z,985.38
2023-03-08T08:46:31.762Z,985.4
2023-03-08T08:47:12.261Z,985.4
2023-03-08T08:47:52.836Z,985.39
2023-03-08T08:48:33.366Z,985.39
2023-03-08T08:49:13.869Z,985.35
2023-03-08T08:49:54.363Z,985.3
2023-03-08T08:50:34.872Z,985.29
2023-03-08T08:51:15.435Z,985.34
2023-03-08T08:51:56.230Z,985.34
2023-03-08T08:52:36.794Z,985.37
2023-03-08T08:53:17.338Z,985.42
2023-03-08T08:53:57.837Z,985.4
2023-03-08T08:54:39.100Z,985.38
2023-03-08T08:55:19.592Z,985.34
2023-03-08T08:56:00.144Z,985.3
2023-03-08T08:56:41.467Z,985.31
2023-03-08T08:57:22.014Z,985.28
2023-03-08T08:58:02.526Z,985.2
2023-03-08T08:58:43.136Z,985.2
2023-03-08T08:59:23.685Z,985.23
2023-03-08T09:00:04.215Z,985.22
2023-03-08T09:00:44.728Z,985.15
2023-03-08T09:01:25.270Z,985.13
2023-03-08T09:02:06.271Z,985.14
2023-03-08T09:02:46.776Z,985.09
2023-03-08T09:03:27.325Z,985.07
2023-03-08T09:04:07.846Z,985.06
2023-03-08T09:04:48.676Z,985.01
2023-03-08T09:05:29.096Z,985.02
2023-03-08T09:06:09.632Z,985.08
2023-03-08T09:06:50.312Z,985.02
2023-03-08T09:07:31.040Z,985.03
2023-03-08T09:08:11.594Z,984.97
2023-03-08T09:10:24.704Z,984.92
2023-03-08T09:11:06.851Z,984.9
2023-03-08T09:11:55.324Z,984.86
2023-03-08T09:12:31.772Z,984.84
2023-03-08T09:14:50.090Z,984.81
2023-03-08T09:15:30.496Z,984.86
2023-03-08T09:16:11.985Z,984.82
2023-03-08T09:16:52.752Z,984.78
2023-03-08T09:17:32.964Z,984.76
2023-03-08T09:18:13.510Z,984.79
2023-03-08T09:18:54.223Z,984.8
2023-03-08T09:19:34.747Z,984.78
2023-03-08T09:20:15.289Z,984.75
2023-03-08T09:20:55.828Z,984.76
2023-03-08T09:21:37.247Z,984.75
2023-03-08T09:22:17.875Z,984.77
2023-03-08T09:22:58.438Z,984.76
2023-03-08T09:23:38.951Z,984.74
2023-03-08T09:24:19.478Z,984.68
2023-03-08T09:25:00.011Z,984.7
2023-03-08T09:25:40.542Z,984.68
2023-03-08T09:26:21.076Z,984.71
2023-03-08T09:27:01.601Z,984.65
2023-03-08T09:27:42.157Z,984.63
2023-03-08T09:28:22.682Z,984.61
2023-03-08T09:29:03.232Z,984.61
2023-03-08T09:29:44.556Z,984.53
2023-03-08T09:30:26.019Z,984.55